.
WxDataArchive / Data Records for 2011-09-26
2011-09-25 September 2011 2011-09-27

Data Records for Monday, 26 September 2011

Time	Temp	Chill	HIndex	Humid	Dewpt	 Wind 	HiWind	WindDir	Rain 	Barom 
-----	----	-----	------	-----	-----	------	------	-------	-----	----- 
00:00	57.2	57.2	57.2	96	56.1	0	2	90	0.01	29.863 
00:05	57.2	57.2	57.2	96	56.1	0	2	90	0.01	29.863 
00:10	57.3	57.3	57.3	96	56.2	0	3	90	0.00	29.863 
00:15	57.3	57.3	57.3	96	56.2	1	4	90	0.01	29.869 
00:20	57.3	57.3	57.3	96	56.2	1	3	90	0.00	29.869 
00:25	57.3	57.3	57.3	96	56.2	0	1	90	0.01	29.869 
00:30	57.5	57.5	57.5	96	56.4	1	4	90	0.02	29.861 
00:35	57.5	57.5	57.5	96	56.4	0	3	90	0.01	29.861 
00:40	57.5	57.5	57.5	96	56.4	0	0	---	0.01	29.861 
00:45	57.5	57.5	57.5	96	56.4	0	0	---	0.01	29.859 
00:50	57.5	57.5	57.5	96	56.4	0	1	90	0.01	29.859 
00:55	57.5	57.5	57.5	96	56.4	0	0	---	0.01	29.859 
01:00	57.5	57.5	57.5	96	56.4	0	0	---	0.02	29.842 
01:05	57.5	57.5	57.5	96	56.4	0	0	---	0.01	29.842 
01:10	57.5	57.5	57.5	96	56.4	0	0	---	0.01	29.842 
01:15	57.5	57.5	57.5	96	56.4	0	1	90	0.01	29.804 
01:20	57.6	57.6	57.6	96	56.5	0	1	90	0.01	29.804 
01:25	57.6	57.6	57.6	96	56.5	0	2	90	0.02	29.804 
01:30	57.8	57.8	57.8	96	56.7	1	3	90	0.02	29.774 
01:35	58.0	58.0	58.0	96	56.9	1	3	90	0.02	29.774 
01:40	58.0	58.0	58.0	96	56.9	2	4	90	0.03	29.774 
01:45	58.3	58.3	58.3	96	57.2	3	5	90	0.01	29.738 
01:50	58.4	58.4	58.4	96	57.3	2	5	90	0.02	29.738 
01:55	58.4	58.4	58.4	96	57.3	1	4	90	0.02	29.738 
02:00	58.6	58.6	58.6	96	57.5	0	3	90	0.02	29.743 
02:05	58.6	58.6	58.6	96	57.5	1	3	90	0.02	29.743 
02:10	58.7	58.7	58.7	96	57.6	1	4	90	0.02	29.743 
02:15	58.7	58.7	58.7	96	57.6	1	4	90	0.04	29.736 
02:20	58.7	58.7	58.7	96	57.6	3	10	90	0.03	29.736 
02:25	58.9	58.9	58.9	96	57.8	3	7	68	0.03	29.736 
02:30	58.9	58.9	58.9	96	57.8	3	4	90	0.02	29.722 
02:35	58.9	58.9	58.9	96	57.8	4	6	90	0.03	29.722 
02:40	58.9	58.9	58.9	96	57.8	4	9	90	0.02	29.722 
02:45	59.0	59.0	59.0	96	57.9	4	10	90	0.02	29.703 
02:50	59.0	59.0	59.0	96	57.9	4	11	90	0.02	29.703 
02:55	59.2	59.2	59.2	97	58.3	4	14	90	0.03	29.703 
03:00	59.2	59.2	59.2	96	58.1	4	10	90	0.01	29.670 
03:05	59.2	59.2	59.2	96	58.1	4	7	90	0.01	29.670 
03:10	59.3	59.3	59.3	97	58.4	4	11	90	0.01	29.670 
03:15	59.3	59.3	59.3	97	58.4	3	11	90	0.01	29.673 
03:20	59.5	59.5	59.5	97	58.6	5	12	90	0.00	29.673 
03:25	59.5	59.5	59.5	97	58.6	3	11	90	0.01	29.673 
03:30	59.5	59.5	59.5	97	58.6	1	4	90	0.00	29.671 
03:35	59.6	59.6	59.6	97	58.7	5	13	90	0.00	29.671 
03:40	59.6	59.6	59.6	97	58.7	3	8	90	0.00	29.671 
03:45	60.1	60.1	60.1	97	59.2	7	14	90	0.00	29.647 
03:50	60.2	60.2	60.2	97	59.3	5	12	90	0.00	29.647 
03:55	60.2	60.2	60.2	96	59.1	3	10	112	0.00	29.647 
04:00	60.2	60.2	60.2	96	59.1	3	7	90	0.00	29.641 
04:05	60.4	60.4	60.4	96	59.3	4	12	90	0.00	29.641 
04:10	60.7	60.7	60.7	96	59.6	4	10	90	0.00	29.641 
04:15	60.9	60.9	60.9	96	59.7	3	10	112	0.00	29.642 
04:20	61.2	61.2	61.2	96	60.0	3	6	90	0.00	29.642 
04:25	61.3	61.3	61.3	96	60.1	3	7	90	0.00	29.642 
04:30	61.5	61.5	61.5	96	60.3	3	10	90	0.00	29.632 
04:35	61.6	61.6	61.6	96	60.4	3	10	90	0.00	29.632 
04:40	61.6	61.6	61.6	96	60.4	3	13	112	0.00	29.632 
04:45	61.6	61.6	61.6	96	60.4	3	8	112	0.00	29.621 
04:50	61.8	61.8	61.8	95	60.3	3	11	90	0.00	29.621 
04:55	61.8	61.8	61.8	95	60.3	2	7	90	0.00	29.621 
05:00	62.0	62.0	62.0	95	60.5	2	7	90	0.00	29.622 
05:05	62.0	62.0	62.0	95	60.5	4	12	112	0.00	29.622 
05:10	62.1	62.1	62.1	94	60.3	3	9	112	0.00	29.622 
05:15	62.3	62.3	62.3	94	60.5	4	14	90	0.00	29.618 
05:20	62.4	62.4	62.4	94	60.6	2	5	112	0.00	29.618 
05:25	62.4	62.4	62.4	94	60.6	3	7	112	0.00	29.618 
05:30	62.6	62.6	62.6	93	60.5	2	7	90	0.00	29.613 
05:35	62.7	62.7	62.7	93	60.6	2	11	90	0.00	29.613 
05:40	62.9	62.9	62.9	93	60.8	2	6	112	0.00	29.613 
05:45	63.1	63.1	63.1	92	60.7	2	6	112	0.00	29.613 
05:50	63.2	63.2	63.2	92	60.8	1	4	90	0.00	29.613 
05:55	63.2	63.2	63.2	92	60.8	2	6	90	0.00	29.613 
06:00	63.4	63.4	63.4	92	61.0	1	4	112	0.00	29.620 
06:05	63.4	63.4	63.4	91	60.7	2	7	90	0.00	29.620 
06:10	63.2	63.2	63.2	92	60.8	1	7	90	0.00	29.620 
06:15	63.2	63.2	63.2	92	60.8	1	4	112	0.00	29.623 
06:20	63.1	63.1	63.1	92	60.7	3	10	90	0.00	29.623 
06:25	62.9	62.9	62.9	92	60.5	1	4	90	0.00	29.623 
06:30	62.9	62.9	62.9	92	60.5	2	6	45	0.00	29.628 
06:35	62.7	62.7	62.7	93	60.6	2	4	68	0.00	29.628 
06:40	62.7	62.7	62.7	90	59.7	2	4	112	0.00	29.628 
06:45	62.7	62.7	62.7	93	60.6	2	5	90	0.00	29.629 
06:50	62.7	62.7	62.7	93	60.6	2	4	90	0.00	29.629 
06:55	62.7	62.7	62.7	93	60.6	1	4	90	0.00	29.629 
07:00	62.7	62.7	62.7	93	60.6	0	3	68	0.00	29.624 
07:05	62.7	62.7	62.7	93	60.6	0	2	90	0.00	29.624 
07:10	62.9	62.9	62.9	94	61.1	0	1	90	0.00	29.624 
07:15	62.9	62.9	62.9	94	61.1	0	1	90	0.00	29.626 
07:20	62.9	62.9	62.9	94	61.1	0	2	90	0.00	29.626 
07:25	62.9	62.9	62.9	94	61.1	0	3	135	0.00	29.626 
07:30	63.1	63.1	63.1	94	61.3	1	4	158	0.00	29.624 
07:35	63.2	63.2	63.2	94	61.4	1	3	112	0.00	29.624 
07:40	63.2	63.2	63.2	94	61.4	1	4	112	0.00	29.624 
07:45	63.4	63.4	63.4	94	61.6	0	2	112	0.00	29.631 
07:50	63.4	63.4	63.4	94	61.6	1	3	112	0.00	29.631 
07:55	63.4	63.4	63.4	94	61.6	0	3	90	0.00	29.631 
08:00	63.5	63.5	63.5	94	61.7	1	3	90	0.00	29.642 
08:05	63.5	63.5	63.5	94	61.7	0	1	45	0.00	29.642 
08:10	63.5	63.5	63.5	94	61.7	0	1	45	0.00	29.642 
08:15	63.4	63.4	63.4	93	61.3	0	5	225	0.01	29.656 
08:20	62.9	62.9	62.9	93	60.8	0	5	248	0.00	29.656 
08:25	62.6	62.6	62.6	93	60.5	1	4	248	0.00	29.656 
08:30	62.3	62.3	62.3	93	60.2	1	4	292	0.00	29.669 
08:35	61.6	61.6	61.6	92	59.2	1	5	248	0.00	29.669 
08:40	61.0	61.0	61.0	92	58.7	1	4	270	0.00	29.669 
08:45	60.5	60.5	60.5	92	58.2	1	3	270	0.00	29.676 
08:50	60.2	60.2	60.2	92	57.9	0	2	270	0.00	29.676 
08:55	60.1	60.1	60.1	92	57.8	0	3	270	0.00	29.676 
09:00	59.8	59.8	59.8	91	57.2	0	2	270	0.00	29.678 
09:05	59.5	59.5	59.5	91	56.9	0	3	270	0.00	29.678 
09:10	59.3	59.3	59.3	91	56.7	1	3	270	0.00	29.678 
09:15	59.0	59.0	59.0	90	56.1	1	4	315	0.00	29.692 
09:20	58.9	58.9	58.9	89	55.7	1	5	270	0.00	29.692 
09:25	58.9	58.9	58.9	88	55.3	1	4	248	0.00	29.692 
09:30	58.7	58.7	58.7	88	55.2	1	5	248	0.00	29.697 
09:35	58.6	58.6	58.6	87	54.7	1	5	270	0.00	29.697 
09:40	58.6	58.6	58.6	87	54.7	2	4	248	0.00	29.697 
09:45	58.7	58.7	58.7	86	54.5	1	5	248	0.00	29.708 
09:50	58.7	58.7	58.7	85	54.2	1	4	225	0.00	29.708 
09:55	58.7	58.7	58.7	85	54.2	1	4	248	0.00	29.708 
10:00	58.7	58.7	58.7	85	54.2	0	4	225	0.00	29.708 
10:05	59.0	59.0	59.0	85	54.5	1	3	270	0.00	29.708 
10:10	59.6	59.6	59.6	84	54.8	1	6	248	0.00	29.708 
10:15	60.1	60.1	60.1	83	54.9	1	4	270	0.00	29.717 
10:20	60.2	60.2	60.2	81	54.3	1	3	248	0.00	29.717 
10:25	60.2	60.2	60.2	81	54.3	2	4	248	0.00	29.717 
10:30	60.2	60.2	60.2	81	54.3	1	4	248	0.00	29.721 
10:35	60.2	60.2	60.2	81	54.3	1	3	270	0.00	29.721 
10:40	60.1	60.1	60.1	81	54.2	1	6	248	0.00	29.721 
10:45	60.1	60.1	60.1	81	54.2	1	4	270	0.00	29.734 
10:50	60.1	60.1	60.1	81	54.2	1	4	270	0.00	29.734 
10:55	60.2	60.2	60.2	81	54.3	0	2	270	0.00	29.734 
11:00	61.0	61.0	61.0	79	54.4	1	5	270	0.00	29.740 
11:05	61.2	61.2	61.2	78	54.3	1	4	248	0.00	29.740 
11:10	60.9	60.9	60.9	77	53.6	1	4	225	0.00	29.740 
11:15	61.0	61.0	61.0	78	54.1	0	2	225	0.00	29.748 
11:20	61.2	61.2	61.2	77	53.9	1	4	270	0.00	29.748 
11:25	61.8	61.8	61.8	77	54.5	0	3	270	0.00	29.748 
11:30	62.6	62.6	62.6	73	53.8	1	4	248	0.00	29.748 
11:35	63.2	63.2	63.2	71	53.6	1	4	112	0.00	29.748 
11:40	63.4	63.4	63.4	70	53.4	1	4	248	0.00	29.748 
11:45	63.1	63.1	63.1	72	53.9	1	4	248	0.00	29.752 
11:50	62.9	62.9	62.9	73	54.1	1	4	90	0.00	29.752 
11:55	63.1	63.1	63.1	74	54.7	1	4	270	0.00	29.752 
12:00	63.7	63.7	63.7	71	54.1	1	4	248	0.00	29.751 
12:05	63.9	63.9	63.9	68	53.1	1	4	248	0.00	29.751 
12:10	63.7	63.7	63.7	68	52.9	1	6	248	0.00	29.751 
12:15	63.2	63.2	63.2	67	52.1	1	4	248	0.00	29.752 
12:20	62.7	62.7	62.7	68	52.0	1	4	248	0.00	29.752 
12:25	62.6	62.6	62.6	69	52.3	1	5	292	0.00	29.752 
12:30	62.7	62.7	62.7	70	52.8	2	6	270	0.00	29.760 
12:35	63.4	63.4	63.4	69	53.0	2	5	270	0.00	29.760 
12:40	64.2	64.2	64.2	70	54.2	1	3	248	0.00	29.760 
12:45	64.7	64.7	64.7	67	53.5	1	5	270	0.00	29.762 
12:50	65.0	65.0	65.0	64	52.5	1	4	248	0.00	29.762 
12:55	65.2	65.2	65.2	66	53.5	2	5	270	0.00	29.762 
13:00	65.2	65.2	65.2	66	53.5	2	5	270	0.00	29.764 
13:05	65.3	65.3	65.3	63	52.4	2	7	315	0.00	29.764 
13:10	65.6	65.6	65.6	65	53.5	1	3	112	0.00	29.764 
13:15	66.0	66.0	66.0	59	51.3	1	5	90	0.00	29.764 
13:20	65.8	65.8	65.8	60	51.5	2	6	90	0.00	29.764 
13:25	65.5	65.5	65.5	62	52.1	2	6	248	0.00	29.764 
13:30	65.2	65.2	65.2	63	52.3	1	4	248	0.00	29.764 
13:35	65.5	65.5	65.5	62	52.1	1	2	135	0.00	29.764 
13:40	65.2	65.2	65.2	62	51.8	1	3	248	0.00	29.764 
13:45	65.2	65.2	65.2	61	51.4	1	4	248	0.00	29.763 
13:50	65.5	65.5	65.5	62	52.1	1	5	292	0.00	29.763 
13:55	65.3	65.3	65.3	62	51.9	2	5	270	0.00	29.763 
14:00	65.2	65.2	65.2	60	51.0	1	4	292	0.00	29.763 
14:05	65.0	65.0	65.0	59	50.3	1	4	315	0.00	29.763 
14:10	65.2	65.2	65.2	61	51.4	2	4	270	0.00	29.763 
14:15	65.2	65.2	65.2	58	50.0	1	5	270	0.00	29.754 
14:20	65.3	65.3	65.3	59	50.6	2	5	270	0.00	29.754 
14:25	65.2	65.2	65.2	59	50.5	1	5	270	0.00	29.754 
14:30	65.5	65.5	65.5	60	51.2	1	3	248	0.00	29.749 
14:35	65.8	65.8	65.8	59	51.1	0	2	248	0.00	29.749 
14:40	65.6	65.6	65.6	58	50.4	1	3	248	0.00	29.749 
14:45	65.6	65.6	65.6	58	50.4	0	3	248	0.00	29.746 
14:50	65.8	65.8	65.8	57	50.1	1	4	248	0.00	29.746 
14:55	66.4	66.4	66.4	59	51.6	0	2	248	0.00	29.746 
15:00	66.9	66.9	66.9	56	50.7	1	4	270	0.00	29.740 
15:05	67.4	67.4	67.4	54	50.2	0	2	338	0.00	29.740 
15:10	67.9	67.9	67.9	54	50.6	1	3	248	0.00	29.740 
15:15	68.1	68.1	68.1	51	49.3	1	4	0	0.00	29.744 
15:20	67.9	67.9	67.9	50	48.6	1	4	315	0.00	29.744 
15:25	67.8	67.8	67.8	49	47.9	1	5	248	0.00	29.744 
15:30	67.9	67.9	67.9	48	47.5	1	4	248	0.00	29.744 
15:35	68.1	68.1	68.1	49	48.2	1	3	270	0.00	29.744 
15:40	68.1	68.1	68.1	48	47.7	2	5	270	0.00	29.744 
15:45	68.1	68.1	68.1	48	47.7	1	4	248	0.00	29.745 
15:50	68.1	68.1	68.1	50	48.7	1	5	68	0.00	29.745 
15:55	67.8	67.8	67.8	49	47.9	1	4	68	0.00	29.745 
16:00	67.4	67.4	67.4	50	48.1	0	2	248	0.00	29.743 
16:05	67.4	67.4	67.4	49	47.6	1	3	248	0.00	29.743 
16:10	67.8	67.8	67.8	47	46.8	2	5	270	0.00	29.743 
16:15	67.8	67.8	67.8	46	46.3	1	5	292	0.00	29.737 
16:20	67.6	67.6	67.6	46	46.1	1	4	270	0.00	29.737 
16:25	67.8	67.8	67.8	48	47.4	0	3	248	0.00	29.737 
16:30	67.8	67.8	67.8	44	45.1	2	4	248	0.00	29.738 
16:35	67.8	67.8	67.8	45	45.7	1	3	270	0.00	29.738 
16:40	67.8	67.8	67.8	45	45.7	1	6	248	0.00	29.738 
16:45	67.8	67.8	67.8	46	46.3	1	2	338	0.00	29.740 
16:50	67.8	67.8	67.8	47	46.8	1	3	248	0.00	29.740 
16:55	67.8	67.8	67.8	48	47.4	1	3	248	0.00	29.740 
17:00	67.8	67.8	67.8	45	45.7	1	5	292	0.00	29.744 
17:05	67.8	67.8	67.8	45	45.7	0	2	270	0.00	29.744 
17:10	67.6	67.6	67.6	44	44.9	1	6	270	0.00	29.744 
17:15	67.6	67.6	67.6	46	46.1	1	2	248	0.00	29.745 
17:20	67.4	67.4	67.4	46	45.9	0	3	248	0.00	29.745 
17:25	67.3	67.3	67.3	44	44.6	1	4	270	0.00	29.745 
17:30	66.8	66.8	66.8	45	44.8	1	3	248	0.00	29.750 
17:35	66.6	66.6	66.6	46	45.2	1	4	270	0.00	29.750 
17:40	66.6	66.6	66.6	47	45.7	1	4	270	0.00	29.750 
17:45	66.6	66.6	66.6	46	45.2	1	5	248	0.00	29.752 
17:50	66.4	66.4	66.4	45	44.4	1	4	248	0.00	29.752 
17:55	66.0	66.0	66.0	48	45.7	0	2	270	0.00	29.752 
18:00	65.6	65.6	65.6	47	44.8	0	3	270	0.00	29.761 
18:05	65.5	65.5	65.5	48	45.3	0	4	270	0.00	29.761 
18:10	65.3	65.3	65.3	49	45.6	1	4	270	0.00	29.761 
18:15	65.3	65.3	65.3	49	45.6	1	3	270	0.00	29.763 
18:20	65.2	65.2	65.2	50	46.1	0	3	270	0.00	29.763 
18:25	65.0	65.0	65.0	49	45.4	1	4	270	0.00	29.763 
18:30	65.0	65.0	65.0	48	44.8	1	5	270	0.00	29.772 
18:35	65.0	65.0	65.0	47	44.3	1	4	248	0.00	29.772 
18:40	64.8	64.8	64.8	47	44.1	1	4	270	0.00	29.772 
18:45	64.7	64.7	64.7	47	44.0	0	3	270	0.00	29.776 
18:50	64.3	64.3	64.3	48	44.2	0	2	270	0.00	29.776 
18:55	64.2	64.2	64.2	47	43.5	0	3	270	0.00	29.776 
19:00	63.9	63.9	63.9	46	42.7	0	2	270	0.00	29.776 
19:05	63.7	63.7	63.7	47	43.1	0	2	270	0.00	29.776 
19:10	63.4	63.4	63.4	48	43.4	0	1	270	0.00	29.776 
19:15	63.2	63.2	63.2	49	43.7	0	1	270	0.00	29.781 
19:20	62.9	62.9	62.9	50	44.0	0	1	270	0.00	29.781 
19:25	62.4	62.4	62.4	51	44.0	0	1	270	0.00	29.781 
19:30	62.1	62.1	62.1	51	43.8	0	1	270	0.00	29.782 
19:35	61.8	61.8	61.8	52	44.0	0	1	270	0.00	29.782 
19:40	61.5	61.5	61.5	52	43.7	0	1	270	0.00	29.782 
19:45	61.3	61.3	61.3	53	44.0	0	1	270	0.00	29.783 
19:50	61.0	61.0	61.0	54	44.2	0	0	---	0.00	29.783 
19:55	60.5	60.5	60.5	55	44.2	0	0	---	0.00	29.783 
20:00	60.2	60.2	60.2	57	44.9	0	0	---	0.00	29.781 
20:05	59.8	59.8	59.8	57	44.5	0	0	---	0.00	29.781 
20:10	59.3	59.3	59.3	58	44.5	0	0	---	0.00	29.781 
20:15	59.0	59.0	59.0	59	44.7	0	0	---	0.00	29.787 
20:20	58.7	58.7	58.7	60	44.8	0	0	---	0.00	29.787 
20:25	58.6	58.6	58.6	59	44.3	0	0	---	0.00	29.787 
20:30	58.3	58.3	58.3	60	44.5	0	0	---	0.00	29.787 
20:35	58.1	58.1	58.1	60	44.3	0	0	---	0.00	29.787 
20:40	58.0	58.0	58.0	61	44.6	0	1	270	0.00	29.787 
20:45	57.8	57.8	57.8	62	44.9	0	0	---	0.00	29.790 
20:50	57.5	57.5	57.5	62	44.6	0	0	---	0.00	29.790 
20:55	57.2	57.2	57.2	63	44.7	0	0	---	0.00	29.790 
21:00	57.0	57.0	57.0	63	44.5	0	1	270	0.00	29.801 
21:05	57.0	57.0	57.0	64	44.9	0	1	270	0.00	29.801 
21:10	57.0	57.0	57.0	64	44.9	0	1	270	0.00	29.801 
21:15	56.9	56.9	56.9	64	44.8	0	0	---	0.00	29.801 
21:20	56.9	56.9	56.9	64	44.8	0	0	---	0.00	29.801 
21:25	56.7	56.7	56.7	64	44.7	0	0	---	0.00	29.801 
21:30	56.6	56.6	56.6	65	45.0	0	0	---	0.00	29.809 
21:35	56.5	56.5	56.5	65	44.9	0	0	---	0.00	29.809 
21:40	56.3	56.3	56.3	65	44.7	0	0	---	0.00	29.809 
21:45	56.0	56.0	56.0	66	44.8	0	0	---	0.00	29.812 
21:50	55.9	55.9	55.9	67	45.1	0	0	---	0.00	29.812 
21:55	55.7	55.7	55.7	67	44.9	0	0	---	0.00	29.812 
22:00	55.6	55.6	55.6	67	44.8	0	0	---	0.00	29.815 
22:05	55.4	55.4	55.4	68	45.0	0	0	---	0.00	29.815 
22:10	55.3	55.3	55.3	69	45.3	0	0	---	0.00	29.815 
22:15	55.0	55.0	55.0	70	45.4	0	0	---	0.00	29.812 
22:20	54.8	54.8	54.8	70	45.2	0	0	---	0.00	29.812 
22:25	54.5	54.5	54.5	72	45.7	0	0	---	0.00	29.812 
22:30	54.2	54.2	54.2	73	45.7	0	0	---	0.00	29.812 
22:35	53.8	53.8	53.8	74	45.7	0	0	---	0.00	29.812 
22:40	53.3	53.3	53.3	75	45.6	0	0	---	0.00	29.812 
22:45	53.1	53.1	53.1	76	45.7	0	0	---	0.00	29.818 
22:50	52.8	52.8	52.8	77	45.8	0	0	---	0.00	29.818 
22:55	52.5	52.5	52.5	78	45.8	0	0	---	0.00	29.818 
23:00	52.0	52.0	52.0	80	46.0	0	0	---	0.00	29.821 
23:05	51.7	51.7	51.7	80	45.7	0	0	---	0.00	29.821 
23:10	51.4	51.4	51.4	81	45.8	0	0	---	0.00	29.821 
23:15	51.3	51.3	51.3	82	46.0	0	0	---	0.00	29.825 
23:20	51.0	51.0	51.0	82	45.7	0	0	---	0.00	29.825 
23:25	51.0	51.0	51.0	83	46.0	0	0	---	0.00	29.825 
23:30	50.8	50.8	50.8	84	46.1	0	0	---	0.00	29.824 
23:35	50.7	50.7	50.7	84	46.0	0	0	---	0.00	29.824 
23:40	50.5	50.5	50.5	84	45.8	0	0	---	0.00	29.824 
23:45	50.4	50.4	50.4	85	46.1	0	0	---	0.00	29.823 
23:50	50.1	50.1	50.1	85	45.8	0	0	---	0.00	29.823 
23:55	49.9	49.9	49.9	85	45.6	0	0	---	0.00	29.823 

CoCoRaHS
IN-AL-39
A2 Web Hosting
Creative Commons License
GoDaddy
search engine by freefind advanced

loaded 2018-11-15 03:01:02 • last modified 2010-11-18 10:43:29
Privacy PolicyDisclaimer
• wx.awcolley.com is powered by PmWiki v.2002016 •
• all content (unless otherwise noted) © 2018 A W Colley